Terminal Aerodrome Forecast
Issued by NWS

Home | Current Version | Previous Version | Text Only | Print | Product List | Glossary Off
Versions: 1 2 3 4 5 6 7 8 9 10 11 12 13 14 15 16 17 18

000
FTUS43 KGRB 271700
TAFCWA
TAF
KCWA 271725Z 2718/2818 10008KT P6SM BKN070 BKN150
     FM280000 VRB03KT P6SM VCSH SCT040 BKN080
      TEMPO 2801/2805 5SM -SHRA BR SCT020 OVC040
     FM280500 28007KT 6SM -RA BR BKN020 OVC040
     FM280800 27007KT P6SM SCT009 BKN020
      TEMPO 2808/2812 BKN009
     FM281200 27010KT P6SM SCT020 BKN050
     FM281600 26014G22KT P6SM VCSH SCT030 BKN050=

USA.gov is the U.S. government's official web portal to all federal, state and local government web resources and services.